^^
Your Local Weather - Clay, NY Station Historical Data
Daily Summary for February 9, 2018 Units:  Both    English   Metric
« Previous Day
Next Day »
Daily Weekly Monthly Yearly Custom
  High: Low: Average:
Temperature: 24.3 °F /  -4.3 °C 10.5 °F /  -11.9 °C 19.2 °F /  -7.1 °C
Dew Point: 22.1 °F /  -5.5 °C 5.3 °F /  -14.8 °C 14.7 °F /  -9.6 °C
Humidity: 91% 68% 82%
Wind Speed: 5.0mph /  8km/h - 2.1mph /  3.4km/h
Wind Gust: 9.0mph /  14.5km/h - -
Wind- - SSE
Pressure: 30.46 in /  1031.4 hPa 30.18 in /  1021.9 hPa -
Precipitation: 0.00 in /  0 mm    
Historical Graphs
 
 
Tabular Data for February 9, 2018
Time Temperature Dew Point Pressure Wind Wind Speed Wind Gust Humidity Rainfall Rate (Hourly) solar
00:02 15.4 °F /  -9.2 °C 9.5 °F /  -12.5 °C 30.41in /  1029.7hPa WNW 2.0mph /  3.2km/h 2.0mph /  3.2km/h 77% 0.00in /  0mm 0 W/m2
00:08 15.2 °F /  -9.3 °C 9.3 °F /  -12.6 °C 30.41in /  1029.7hPa WSW 1.0mph /  1.6km/h 4.0mph /  6.4km/h 77% 0.00in /  0mm 0 W/m2
00:16 15.2 °F /  -9.3 °C 9.3 °F /  -12.6 °C 30.41in /  1029.7hPa SW 2.0mph /  3.2km/h 4.0mph /  6.4km/h 77% 0.00in /  0mm 0 W/m2
00:22 15.3 °F /  -9.3 °C 9.7 °F /  -12.4 °C 30.41in /  1029.7hPa West 3.0mph /  4.8km/h 7.0mph /  11.3km/h 78% 0.00in /  0mm 0 W/m2
00:28 15.4 °F /  -9.2 °C 9.8 °F /  -12.3 °C 30.41in /  1029.7hPa SW 3.0mph /  4.8km/h 7.0mph /  11.3km/h 78% 0.00in /  0mm 0 W/m2
00:34 15.5 °F /  -9.2 °C 9.9 °F /  -12.3 °C 30.41in /  1029.7hPa WSW 3.0mph /  4.8km/h 3.0mph /  4.8km/h 78% 0.00in /  0mm 0 W/m2
00:40 15.6 °F /  -9.1 °C 10.0 °F /  -12.2 °C 30.40in /  1029.3hPa WSW 3.0mph /  4.8km/h 5.0mph /  8km/h 78% 0.00in /  0mm 0 W/m2
00:46 15.7 °F /  -9.1 °C 10.1 °F /  -12.2 °C 30.40in /  1029.3hPa West 3.0mph /  4.8km/h 5.0mph /  8km/h 78% 0.00in /  0mm 0 W/m2
00:52 15.6 °F /  -9.1 °C 10.0 °F /  -12.2 °C 30.41in /  1029.7hPa West 1.0mph /  1.6km/h 2.0mph /  3.2km/h 78% 0.00in /  0mm 0 W/m2
00:58 15.3 °F /  -9.3 °C 9.7 °F /  -12.4 °C 30.40in /  1029.3hPa WSW 1.0mph /  1.6km/h 5.0mph /  8km/h 78% 0.00in /  0mm 0 W/m2
01:04 15.1 °F /  -9.4 °C 9.5 °F /  -12.5 °C 30.40in /  1029.3hPa WSW 1.0mph /  1.6km/h 3.0mph /  4.8km/h 78% 0.00in /  0mm 0 W/m2
01:10 15.0 °F /  -9.4 °C 9.7 °F /  -12.4 °C 30.41in /  1029.7hPa WSW 1.0mph /  1.6km/h 1.0mph /  1.6km/h 79% 0.00in /  0mm 0 W/m2
01:16 14.7 °F /  -9.6 °C 9.4 °F /  -12.6 °C 30.41in /  1029.7hPa WSW 1.0mph /  1.6km/h 1.0mph /  1.6km/h 79% 0.00in /  0mm 0 W/m2
01:22 14.6 °F /  -9.7 °C 9.3 °F /  -12.6 °C 30.41in /  1029.7hPa WSW 1.0mph /  1.6km/h 1.0mph /  1.6km/h 79% 0.00in /  0mm 0 W/m2
01:28 14.5 °F /  -9.7 °C 9.5 °F /  -12.5 °C 30.41in /  1029.7hPa West 2.0mph /  3.2km/h 3.0mph /  4.8km/h 80% 0.00in /  0mm 0 W/m2
01:34 14.7 °F /  -9.6 °C 9.4 °F /  -12.6 °C 30.41in /  1029.7hPa West 2.0mph /  3.2km/h 2.0mph /  3.2km/h 79% 0.00in /  0mm 0 W/m2
01:40 14.7 °F /  -9.6 °C 9.4 °F /  -12.6 °C 30.41in /  1029.7hPa West 2.0mph /  3.2km/h 2.0mph /  3.2km/h 79% 0.00in /  0mm 0 W/m2
01:46 14.8 °F /  -9.6 °C 9.5 °F /  -12.5 °C 30.42in /  1030hPa WSW 2.0mph /  3.2km/h 3.0mph /  4.8km/h 79% 0.00in /  0mm 0 W/m2
01:52 14.9 °F /  -9.5 °C 9.6 °F /  -12.4 °C 30.42in /  1030hPa SW 2.0mph /  3.2km/h 8.0mph /  12.9km/h 79% 0.00in /  0mm 0 W/m2
01:58 14.9 °F /  -9.5 °C 9.6 °F /  -12.4 °C 30.42in /  1030hPa SW 2.0mph /  3.2km/h 8.0mph /  12.9km/h 79% 0.00in /  0mm 0 W/m2
02:04 14.8 °F /  -9.6 °C 9.5 °F /  -12.5 °C 30.43in /  1030.4hPa WSW 1.0mph /  1.6km/h 2.0mph /  3.2km/h 79% 0.00in /  0mm 0 W/m2
02:10 14.6 °F /  -9.7 °C 9.3 °F /  -12.6 °C 30.43in /  1030.4hPa WSW 1.0mph /  1.6km/h 1.0mph /  1.6km/h 79% 0.00in /  0mm 0 W/m2
02:16 14.5 °F /  -9.7 °C 9.2 °F /  -12.7 °C 30.43in /  1030.4hPa WSW 1.0mph /  1.6km/h 2.0mph /  3.2km/h 79% 0.00in /  0mm 0 W/m2
02:22 14.3 °F /  -9.8 °C 9.0 °F /  -12.8 °C 30.43in /  1030.4hPa WSW 1.0mph /  1.6km/h 2.0mph /  3.2km/h 79% 0.00in /  0mm 0 W/m2
02:28 14.2 °F /  -9.9 °C 8.9 °F /  -12.8 °C 30.43in /  1030.4hPa SW 2.0mph /  3.2km/h 3.0mph /  4.8km/h 79% 0.00in /  0mm 0 W/m2
02:34 14.2 °F /  -9.9 °C 8.9 °F /  -12.8 °C 30.43in /  1030.4hPa West 2.0mph /  3.2km/h 3.0mph /  4.8km/h 79% 0.00in /  0mm 0 W/m2
02:40 14.1 °F /  -9.9 °C 8.8 °F /  -12.9 °C 30.43in /  1030.4hPa West 2.0mph /  3.2km/h 2.0mph /  3.2km/h 79% 0.00in /  0mm 0 W/m2
02:46 14.0 °F /  -10 °C 8.7 °F /  -12.9 °C 30.43in /  1030.4hPa West 1.0mph /  1.6km/h 3.0mph /  4.8km/h 79% 0.00in /  0mm 0 W/m2
02:52 14.1 °F /  -9.9 °C 9.1 °F /  -12.7 °C 30.43in /  1030.4hPa WSW 2.0mph /  3.2km/h 2.0mph /  3.2km/h 80% 0.00in /  0mm 0 W/m2
02:58 14.2 °F /  -9.9 °C 9.2 °F /  -12.7 °C 30.43in /  1030.4hPa West 2.0mph /  3.2km/h 2.0mph /  3.2km/h 80% 0.00in /  0mm 0 W/m2
03:04 14.3 °F /  -9.8 °C 9.0 °F /  -12.8 °C 30.43in /  1030.4hPa SW 2.0mph /  3.2km/h 3.0mph /  4.8km/h 79% 0.00in /  0mm 0 W/m2
03:10 14.3 °F /  -9.8 °C 9.0 °F /  -12.8 °C 30.43in /  1030.4hPa SW 2.0mph /  3.2km/h 4.0mph /  6.4km/h 79% 0.00in /  0mm 0 W/m2
03:16 14.3 °F /  -9.8 °C 9.0 °F /  -12.8 °C 30.43in /  1030.4hPa West 2.0mph /  3.2km/h 4.0mph /  6.4km/h 79% 0.00in /  0mm 0 W/m2
03:22 14.2 °F /  -9.9 °C 8.9 °F /  -12.8 °C 30.43in /  1030.4hPa SSW 2.0mph /  3.2km/h 2.0mph /  3.2km/h 79% 0.00in /  0mm 0 W/m2
03:28 14.1 °F /  -9.9 °C 8.8 °F /  -12.9 °C 30.43in /  1030.4hPa SSW 1.0mph /  1.6km/h 3.0mph /  4.8km/h 79% 0.00in /  0mm 0 W/m2
03:34 14.0 °F /  -10 °C 8.7 °F /  -12.9 °C 30.43in /  1030.4hPa SSW 1.0mph /  1.6km/h 2.0mph /  3.2km/h 79% 0.00in /  0mm 0 W/m2
03:40 13.8 °F /  -10.1 °C 8.5 °F /  -13.1 °C 30.43in /  1030.4hPa SW 1.0mph /  1.6km/h 1.0mph /  1.6km/h 79% 0.00in /  0mm 0 W/m2
03:46 13.6 °F /  -10.2 °C 8.3 °F /  -13.2 °C 30.43in /  1030.4hPa Calm   1.0mph /  1.6km/h 79% 0.00in /  0mm 0 W/m2
03:52 13.2 °F /  -10.4 °C 7.9 °F /  -13.4 °C 30.43in /  1030.4hPa Calm   1.0mph /  1.6km/h 79% 0.00in /  0mm 0 W/m2
03:58 12.9 °F /  -10.6 °C 7.6 °F /  -13.6 °C 30.43in /  1030.4hPa Calm   2.0mph /  3.2km/h 79% 0.00in /  0mm 0 W/m2
04:04 12.7 °F /  -10.7 °C 7.7 °F /  -13.5 °C 30.43in /  1030.4hPa Calm     80% 0.00in /  0mm 0 W/m2
04:10 12.7 °F /  -10.7 °C 7.7 °F /  -13.5 °C 30.44in /  1030.7hPa Calm     80% 0.00in /  0mm 0 W/m2
04:16 12.8 °F /  -10.7 °C 7.8 °F /  -13.4 °C 30.43in /  1030.4hPa SSW 1.0mph /  1.6km/h 2.0mph /  3.2km/h 80% 0.00in /  0mm 0 W/m2
04:22 12.9 °F /  -10.6 °C 7.9 °F /  -13.4 °C 30.43in /  1030.4hPa SSW 1.0mph /  1.6km/h 1.0mph /  1.6km/h 80% 0.00in /  0mm 0 W/m2
04:28 13.1 °F /  -10.5 °C 8.1 °F /  -13.3 °C 30.43in /  1030.4hPa SW 1.0mph /  1.6km/h 3.0mph /  4.8km/h 80% 0.00in /  0mm 0 W/m2
04:34 13.3 °F /  -10.4 °C 8.3 °F /  -13.2 °C 30.43in /  1030.4hPa SSW 1.0mph /  1.6km/h 1.0mph /  1.6km/h 80% 0.00in /  0mm 0 W/m2
04:40 13.4 °F /  -10.3 °C 8.4 °F /  -13.1 °C 30.43in /  1030.4hPa Calm     80% 0.00in /  0mm 0 W/m2
04:46 13.4 °F /  -10.3 °C 8.4 °F /  -13.1 °C 30.43in /  1030.4hPa Calm     80% 0.00in /  0mm 0 W/m2
04:52 13.3 °F /  -10.4 °C 8.0 °F /  -13.3 °C 30.43in /  1030.4hPa Calm     79% 0.00in /  0mm 0 W/m2
04:58 12.9 °F /  -10.6 °C 7.6 °F /  -13.6 °C 30.43in /  1030.4hPa Calm     79% 0.00in /  0mm 0 W/m2
05:04 12.0 °F /  -11.1 °C 6.5 °F /  -14.2 °C 30.43in /  1030.4hPa Calm     78% 0.00in /  0mm 0 W/m2
05:10 11.2 °F /  -11.6 °C 6.0 °F /  -14.4 °C 30.43in /  1030.4hPa Calm     79% 0.00in /  0mm 0 W/m2
05:16 10.5 °F /  -11.9 °C 5.3 °F /  -14.8 °C 30.43in /  1030.4hPa Calm     79% 0.00in /  0mm 0 W/m2
05:22 10.5 °F /  -11.9 °C 5.5 °F /  -14.7 °C 30.43in /  1030.4hPa Calm     80% 0.00in /  0mm 0 W/m2
05:28 10.9 °F /  -11.7 °C 6.2 °F /  -14.3 °C 30.43in /  1030.4hPa Calm     81% 0.00in /  0mm 0 W/m2
05:34 11.8 °F /  -11.2 °C 7.4 °F /  -13.7 °C 30.44in /  1030.7hPa Calm     82% 0.00in /  0mm 0 W/m2
05:40 12.3 °F /  -10.9 °C 7.9 °F /  -13.4 °C 30.44in /  1030.7hPa Calm     82% 0.00in /  0mm 0 W/m2
05:46 12.7 °F /  -10.7 °C 8.2 °F /  -13.2 °C 30.44in /  1030.7hPa Calm   1.0mph /  1.6km/h 82% 0.00in /  0mm 0 W/m2
05:52 13.1 °F /  -10.5 °C 8.6 °F /  -13 °C 30.44in /  1030.7hPa Calm     82% 0.00in /  0mm 0 W/m2
05:58 13.6 °F /  -10.2 °C 9.1 °F /  -12.7 °C 30.44in /  1030.7hPa SW 1.0mph /  1.6km/h 6.0mph /  9.7km/h 82% 0.00in /  0mm 0 W/m2
06:04 13.9 °F /  -10.1 °C 9.4 °F /  -12.6 °C 30.44in /  1030.7hPa SW 1.0mph /  1.6km/h 2.0mph /  3.2km/h 82% 0.00in /  0mm 0 W/m2
06:10 14.0 °F /  -10 °C 9.2 °F /  -12.7 °C 30.45in /  1031hPa SW 1.0mph /  1.6km/h 1.0mph /  1.6km/h 81% 0.00in /  0mm 0 W/m2
06:16 14.1 °F /  -9.9 °C 9.3 °F /  -12.6 °C 30.45in /  1031hPa SW 1.0mph /  1.6km/h 2.0mph /  3.2km/h 81% 0.00in /  0mm 0 W/m2
06:22 14.3 °F /  -9.8 °C 9.5 °F /  -12.5 °C 30.44in /  1030.7hPa SW 1.0mph /  1.6km/h 1.0mph /  1.6km/h 81% 0.00in /  0mm 0 W/m2
06:28 14.4 °F /  -9.8 °C 9.6 °F /  -12.4 °C 30.45in /  1031hPa SW 1.0mph /  1.6km/h 3.0mph /  4.8km/h 81% 0.00in /  0mm 0 W/m2
06:34 14.5 °F /  -9.7 °C 9.5 °F /  -12.5 °C 30.45in /  1031hPa SW 1.0mph /  1.6km/h 1.0mph /  1.6km/h 80% 0.00in /  0mm 0 W/m2
06:40 14.8 °F /  -9.6 °C 10.0 °F /  -12.2 °C 30.44in /  1030.7hPa SSW 1.0mph /  1.6km/h 1.0mph /  1.6km/h 81% 0.00in /  0mm 0 W/m2
06:46 15.1 °F /  -9.4 °C 10.0 °F /  -12.2 °C 30.44in /  1030.7hPa SSW 2.0mph /  3.2km/h 2.0mph /  3.2km/h 80% 0.00in /  0mm 0 W/m2
06:52 15.4 °F /  -9.2 °C 10.3 °F /  -12.1 °C 30.44in /  1030.7hPa SW 2.0mph /  3.2km/h 2.0mph /  3.2km/h 80% 0.00in /  0mm 0 W/m2
06:58 15.7 °F /  -9.1 °C 10.6 °F /  -11.9 °C 30.44in /  1030.7hPa South 2.0mph /  3.2km/h 5.0mph /  8km/h 80% 0.00in /  0mm 0 W/m2
07:04 15.9 °F /  -8.9 °C 10.5 °F /  -11.9 °C 30.45in /  1031hPa SW 3.0mph /  4.8km/h 5.0mph /  8km/h 79% 0.00in /  0mm 5 W/m2
07:10 16.0 °F /  -8.9 °C 10.6 °F /  -11.9 °C 30.44in /  1030.7hPa SW 2.0mph /  3.2km/h 2.0mph /  3.2km/h 79% 0.00in /  0mm 7 W/m2
07:16 16.0 °F /  -8.9 °C 10.6 °F /  -11.9 °C 30.44in /  1030.7hPa SW 2.0mph /  3.2km/h 4.0mph /  6.4km/h 79% 0.00in /  0mm 9 W/m2
07:22 16.0 °F /  -8.9 °C 10.3 °F /  -12.1 °C 30.44in /  1030.7hPa South 2.0mph /  3.2km/h 4.0mph /  6.4km/h 78% 0.00in /  0mm 14 W/m2
07:28 16.1 °F /  -8.8 °C 10.4 °F /  -12 °C 30.45in /  1031hPa SSW 2.0mph /  3.2km/h 4.0mph /  6.4km/h 78% 0.00in /  0mm 18 W/m2
07:34 16.1 °F /  -8.8 °C 10.4 °F /  -12 °C 30.45in /  1031hPa SSW 2.0mph /  3.2km/h 3.0mph /  4.8km/h 78% 0.00in /  0mm 26 W/m2
07:40 16.3 °F /  -8.7 °C 10.6 °F /  -11.9 °C 30.45in /  1031hPa SW 3.0mph /  4.8km/h 3.0mph /  4.8km/h 78% 0.00in /  0mm 42 W/m2
07:46 16.5 °F /  -8.6 °C 10.5 °F /  -11.9 °C 30.45in /  1031hPa SSW 2.0mph /  3.2km/h 3.0mph /  4.8km/h 77% 0.00in /  0mm 51 W/m2
07:52 16.6 °F /  -8.6 °C 10.6 °F /  -11.9 °C 30.46in /  1031.4hPa SW 1.0mph /  1.6km/h 2.0mph /  3.2km/h 77% 0.00in /  0mm 47 W/m2
07:58 16.8 °F /  -8.4 °C 10.8 °F /  -11.8 °C 30.46in /  1031.4hPa SSW 2.0mph /  3.2km/h 2.0mph /  3.2km/h 77% 0.00in /  0mm 67 W/m2
08:04 17.0 °F /  -8.3 °C 11.0 °F /  -11.7 °C 30.46in /  1031.4hPa SW 2.0mph /  3.2km/h 3.0mph /  4.8km/h 77% 0.00in /  0mm 83 W/m2
08:10 17.3 °F /  -8.2 °C 11.0 °F /  -11.7 °C 30.46in /  1031.4hPa WSW 2.0mph /  3.2km/h 2.0mph /  3.2km/h 76% 0.00in /  0mm 84 W/m2
08:16 17.5 °F /  -8.1 °C 11.2 °F /  -11.6 °C 30.46in /  1031.4hPa SSW 1.0mph /  1.6km/h 3.0mph /  4.8km/h 76% 0.00in /  0mm 79 W/m2
08:22 17.7 °F /  -7.9 °C 11.4 °F /  -11.4 °C 30.46in /  1031.4hPa SW 2.0mph /  3.2km/h 4.0mph /  6.4km/h 76% 0.00in /  0mm 84 W/m2
08:28 17.9 °F /  -7.8 °C 11.6 °F /  -11.3 °C 30.46in /  1031.4hPa SW 2.0mph /  3.2km/h 4.0mph /  6.4km/h 76% 0.00in /  0mm 83 W/m2
08:34 18.1 °F /  -7.7 °C 11.5 °F /  -11.4 °C 30.46in /  1031.4hPa SSW 2.0mph /  3.2km/h 3.0mph /  4.8km/h 75% 0.00in /  0mm 88 W/m2
08:40 18.2 °F /  -7.7 °C 11.6 °F /  -11.3 °C 30.46in /  1031.4hPa SSW 2.0mph /  3.2km/h 2.0mph /  3.2km/h 75% 0.00in /  0mm 98 W/m2
08:46 18.4 °F /  -7.6 °C 11.8 °F /  -11.2 °C 30.46in /  1031.4hPa SSW 2.0mph /  3.2km/h 2.0mph /  3.2km/h 75% 0.00in /  0mm 118 W/m2
08:52 18.7 °F /  -7.4 °C 12.1 °F /  -11.1 °C 30.45in /  1031hPa SSW 2.0mph /  3.2km/h 3.0mph /  4.8km/h 75% 0.00in /  0mm 149 W/m2
08:58 19.0 °F /  -7.2 °C 12.1 °F /  -11.1 °C 30.45in /  1031hPa SSW 1.0mph /  1.6km/h 3.0mph /  4.8km/h 74% 0.00in /  0mm 171 W/m2
09:04 19.3 °F /  -7.1 °C 12.4 °F /  -10.9 °C 30.45in /  1031hPa SSW 1.0mph /  1.6km/h 1.0mph /  1.6km/h 74% 0.00in /  0mm 167 W/m2
09:10 19.4 °F /  -7 °C 12.2 °F /  -11 °C 30.45in /  1031hPa South 1.0mph /  1.6km/h 4.0mph /  6.4km/h 73% 0.00in /  0mm 160 W/m2
09:16 19.5 °F /  -6.9 °C 12.3 °F /  -10.9 °C 30.45in /  1031hPa SSW 2.0mph /  3.2km/h 4.0mph /  6.4km/h 73% 0.00in /  0mm 171 W/m2
09:22 19.7 °F /  -6.8 °C 12.4 °F /  -10.9 °C 30.45in /  1031hPa South 1.0mph /  1.6km/h 3.0mph /  4.8km/h 73% 0.00in /  0mm 174 W/m2
09:28 20.0 °F /  -6.7 °C 12.4 °F /  -10.9 °C 30.45in /  1031hPa WSW 1.0mph /  1.6km/h 3.0mph /  4.8km/h 72% 0.00in /  0mm 174 W/m2
09:34 20.2 °F /  -6.6 °C 12.6 °F /  -10.8 °C 30.45in /  1031hPa WSW 1.0mph /  1.6km/h 2.0mph /  3.2km/h 72% 0.00in /  0mm 179 W/m2
09:40 20.2 °F /  -6.6 °C 12.6 °F /  -10.8 °C 30.45in /  1031hPa SW 1.0mph /  1.6km/h 1.0mph /  1.6km/h 72% 0.00in /  0mm 181 W/m2
09:46 20.4 °F /  -6.4 °C 12.5 °F /  -10.8 °C 30.46in /  1031.4hPa SSW 2.0mph /  3.2km/h 5.0mph /  8km/h 71% 0.00in /  0mm 181 W/m2
09:52 20.4 °F /  -6.4 °C 12.5 °F /  -10.8 °C 30.46in /  1031.4hPa SW 3.0mph /  4.8km/h 3.0mph /  4.8km/h 71% 0.00in /  0mm 183 W/m2
09:58 20.5 °F /  -6.4 °C 12.3 °F /  -10.9 °C 30.46in /  1031.4hPa SW 3.0mph /  4.8km/h 6.0mph /  9.7km/h 70% 0.00in /  0mm 186 W/m2
10:04 20.4 °F /  -6.4 °C 12.2 °F /  -11 °C 30.46in /  1031.4hPa South 3.0mph /  4.8km/h 3.0mph /  4.8km/h 70% 0.00in /  0mm 192 W/m2
10:10 20.6 °F /  -6.3 °C 12.0 °F /  -11.1 °C 30.46in /  1031.4hPa SW 3.0mph /  4.8km/h 4.0mph /  6.4km/h 69% 0.00in /  0mm 185 W/m2
10:16 20.6 °F /  -6.3 °C 12.0 °F /  -11.1 °C 30.45in /  1031hPa SSE 3.0mph /  4.8km/h 5.0mph /  8km/h 69% 0.00in /  0mm 183 W/m2
10:22 20.5 °F /  -6.4 °C 11.9 °F /  -11.2 °C 30.45in /  1031hPa South 3.0mph /  4.8km/h 7.0mph /  11.3km/h 69% 0.00in /  0mm 181 W/m2
10:28 20.5 °F /  -6.4 °C 11.6 °F /  -11.3 °C 30.44in /  1030.7hPa South 4.0mph /  6.4km/h 9.0mph /  14.5km/h 68% 0.00in /  0mm 186 W/m2
10:34 20.7 °F /  -6.3 °C 12.1 °F /  -11.1 °C 30.45in /  1031hPa SE 4.0mph /  6.4km/h 6.0mph /  9.7km/h 69% 0.00in /  0mm 199 W/m2
10:40 20.9 °F /  -6.2 °C 12.0 °F /  -11.1 °C 30.45in /  1031hPa South 3.0mph /  4.8km/h 3.0mph /  4.8km/h 68% 0.00in /  0mm 193 W/m2
10:46 21.0 °F /  -6.1 °C 12.1 °F /  -11.1 °C 30.45in /  1031hPa SW 3.0mph /  4.8km/h 5.0mph /  8km/h 68% 0.00in /  0mm 197 W/m2
10:52 21.2 °F /  -6 °C 12.3 °F /  -10.9 °C 30.45in /  1031hPa SSW 4.0mph /  6.4km/h 4.0mph /  6.4km/h 68% 0.00in /  0mm 193 W/m2
10:58 21.3 °F /  -5.9 °C 12.7 °F /  -10.7 °C 30.46in /  1031.4hPa SSW 4.0mph /  6.4km/h 7.0mph /  11.3km/h 69% 0.00in /  0mm 172 W/m2
11:04 21.2 °F /  -6 °C 12.6 °F /  -10.8 °C 30.46in /  1031.4hPa South 5.0mph /  8km/h 6.0mph /  9.7km/h 69% 0.00in /  0mm 171 W/m2
11:10 21.4 °F /  -5.9 °C 12.8 °F /  -10.7 °C 30.45in /  1031hPa SW 3.0mph /  4.8km/h 3.0mph /  4.8km/h 69% 0.00in /  0mm 171 W/m2
11:16 21.4 °F /  -5.9 °C 12.8 °F /  -10.7 °C 30.45in /  1031hPa South 3.0mph /  4.8km/h 8.0mph /  12.9km/h 69% 0.00in /  0mm 169 W/m2
11:22 21.2 °F /  -6 °C 12.9 °F /  -10.6 °C 30.44in /  1030.7hPa SSE 4.0mph /  6.4km/h 6.0mph /  9.7km/h 70% 0.00in /  0mm 178 W/m2
11:28 21.1 °F /  -6.1 °C 13.2 °F /  -10.4 °C 30.44in /  1030.7hPa South 5.0mph /  8km/h 6.0mph /  9.7km/h 71% 0.00in /  0mm 179 W/m2
11:34 20.9 °F /  -6.2 °C 13.6 °F /  -10.2 °C 30.44in /  1030.7hPa South 5.0mph /  8km/h 5.0mph /  8km/h 73% 0.00in /  0mm 179 W/m2
11:40 20.8 °F /  -6.2 °C 13.8 °F /  -10.1 °C 30.44in /  1030.7hPa SSW 5.0mph /  8km/h 8.0mph /  12.9km/h 74% 0.00in /  0mm 178 W/m2
11:46 20.7 °F /  -6.3 °C 14.3 °F /  -9.8 °C 30.43in /  1030.4hPa South 4.0mph /  6.4km/h 8.0mph /  12.9km/h 76% 0.00in /  0mm 190 W/m2
11:52 20.8 °F /  -6.2 °C 14.4 °F /  -9.8 °C 30.43in /  1030.4hPa SSW 4.0mph /  6.4km/h 4.0mph /  6.4km/h 76% 0.00in /  0mm 211 W/m2
11:58 20.9 °F /  -6.2 °C 14.8 °F /  -9.6 °C 30.42in /  1030hPa South 4.0mph /  6.4km/h 6.0mph /  9.7km/h 77% 0.00in /  0mm 218 W/m2
12:04 21.0 °F /  -6.1 °C 15.2 °F /  -9.3 °C 30.42in /  1030hPa SW 4.0mph /  6.4km/h 4.0mph /  6.4km/h 78% 0.00in /  0mm 213 W/m2
12:10 21.3 °F /  -5.9 °C 15.5 °F /  -9.2 °C 30.41in /  1029.7hPa South 2.0mph /  3.2km/h 2.0mph /  3.2km/h 78% 0.00in /  0mm 206 W/m2
12:16 21.4 °F /  -5.9 °C 15.6 °F /  -9.1 °C 30.41in /  1029.7hPa SW 2.0mph /  3.2km/h 4.0mph /  6.4km/h 78% 0.00in /  0mm 206 W/m2
12:22 21.4 °F /  -5.9 °C 15.9 °F /  -8.9 °C 30.41in /  1029.7hPa South 2.0mph /  3.2km/h 3.0mph /  4.8km/h 79% 0.00in /  0mm 213 W/m2
12:28 21.5 °F /  -5.8 °C 16.0 °F /  -8.9 °C 30.41in /  1029.7hPa SSE 2.0mph /  3.2km/h 5.0mph /  8km/h 79% 0.00in /  0mm 211 W/m2
12:34 21.3 °F /  -5.9 °C 15.8 °F /  -9 °C 30.40in /  1029.3hPa SSE 4.0mph /  6.4km/h 5.0mph /  8km/h 79% 0.00in /  0mm 211 W/m2
12:40 21.3 °F /  -5.9 °C 16.1 °F /  -8.8 °C 30.40in /  1029.3hPa SSE 4.0mph /  6.4km/h 4.0mph /  6.4km/h 80% 0.00in /  0mm 200 W/m2
12:46 21.4 °F /  -5.9 °C 16.2 °F /  -8.8 °C 30.40in /  1029.3hPa SSW 4.0mph /  6.4km/h 4.0mph /  6.4km/h 80% 0.00in /  0mm 188 W/m2
12:52 21.6 °F /  -5.8 °C 16.4 °F /  -8.7 °C 30.40in /  1029.3hPa SW 3.0mph /  4.8km/h 5.0mph /  8km/h 80% 0.00in /  0mm 193 W/m2
12:58 21.8 °F /  -5.7 °C 16.6 °F /  -8.6 °C 30.40in /  1029.3hPa ESE 3.0mph /  4.8km/h 5.0mph /  8km/h 80% 0.00in /  0mm 186 W/m2
13:04 21.8 °F /  -5.7 °C 16.6 °F /  -8.6 °C 30.40in /  1029.3hPa SSW 4.0mph /  6.4km/h 4.0mph /  6.4km/h 80% 0.00in /  0mm 185 W/m2
13:10 21.8 °F /  -5.7 °C 16.6 °F /  -8.6 °C 30.40in /  1029.3hPa South 4.0mph /  6.4km/h 4.0mph /  6.4km/h 80% 0.00in /  0mm 188 W/m2
13:16 21.5 °F /  -5.8 °C 16.9 °F /  -8.4 °C 30.39in /  1029hPa SE 4.0mph /  6.4km/h 6.0mph /  9.7km/h 82% 0.00in /  0mm 186 W/m2
13:22 21.4 °F /  -5.9 °C 16.8 °F /  -8.4 °C 30.38in /  1028.7hPa SE 3.0mph /  4.8km/h 5.0mph /  8km/h 82% 0.00in /  0mm 158 W/m2
13:28 21.4 °F /  -5.9 °C 17.0 °F /  -8.3 °C 30.39in /  1029hPa SSE 3.0mph /  4.8km/h 5.0mph /  8km/h 83% 0.00in /  0mm 146 W/m2
13:34 21.4 °F /  -5.9 °C 17.3 °F /  -8.2 °C 30.38in /  1028.7hPa South 3.0mph /  4.8km/h 3.0mph /  4.8km/h 84% 0.00in /  0mm 148 W/m2
13:40 21.4 °F /  -5.9 °C 17.3 °F /  -8.2 °C 30.38in /  1028.7hPa South 3.0mph /  4.8km/h 3.0mph /  4.8km/h 84% 0.00in /  0mm 155 W/m2
13:46 21.4 °F /  -5.9 °C 17.6 °F /  -8 °C 30.38in /  1028.7hPa SSE 3.0mph /  4.8km/h 4.0mph /  6.4km/h 85% 0.00in /  0mm 156 W/m2
13:52 21.7 °F /  -5.7 °C 17.9 °F /  -7.8 °C 30.37in /  1028.3hPa SSE 2.0mph /  3.2km/h 2.0mph /  3.2km/h 85% 0.00in /  0mm 148 W/m2
13:58 21.8 °F /  -5.7 °C 18.3 °F /  -7.6 °C 30.37in /  1028.3hPa South 2.0mph /  3.2km/h 3.0mph /  4.8km/h 86% 0.00in /  0mm 148 W/m2
14:04 22.0 °F /  -5.6 °C 18.5 °F /  -7.5 °C 30.36in /  1028hPa SSE 2.0mph /  3.2km/h 3.0mph /  4.8km/h 86% 0.00in /  0mm 155 W/m2
14:10 22.0 °F /  -5.6 °C 18.5 °F /  -7.5 °C 30.36in /  1028hPa SE 1.0mph /  1.6km/h 1.0mph /  1.6km/h 86% 0.00in /  0mm 160 W/m2
14:16 22.2 °F /  -5.4 °C 18.7 °F /  -7.4 °C 30.36in /  1028hPa ESE 2.0mph /  3.2km/h 4.0mph /  6.4km/h 86% 0.00in /  0mm 153 W/m2
14:22 22.3 °F /  -5.4 °C 18.7 °F /  -7.4 °C 30.35in /  1027.7hPa SE 2.0mph /  3.2km/h 2.0mph /  3.2km/h 86% 0.00in /  0mm 144 W/m2
14:28 22.3 °F /  -5.4 °C 18.7 °F /  -7.4 °C 30.35in /  1027.7hPa SE 3.0mph /  4.8km/h 5.0mph /  8km/h 86% 0.00in /  0mm 128 W/m2
14:34 22.2 °F /  -5.4 °C 18.7 °F /  -7.4 °C 30.35in /  1027.7hPa SE 4.0mph /  6.4km/h 5.0mph /  8km/h 86% 0.00in /  0mm 128 W/m2
14:40 22.4 °F /  -5.3 °C 18.8 °F /  -7.3 °C 30.34in /  1027.3hPa East 3.0mph /  4.8km/h 3.0mph /  4.8km/h 86% 0.00in /  0mm 130 W/m2
14:52 22.4 °F /  -5.3 °C 18.8 °F /  -7.3 °C 30.33in /  1027hPa ENE 3.0mph /  4.8km/h 3.0mph /  4.8km/h 86% 0.00in /  0mm 121 W/m2
14:58 22.6 °F /  -5.2 °C 19.0 °F /  -7.2 °C 30.33in /  1027hPa SE 3.0mph /  4.8km/h 3.0mph /  4.8km/h 86% 0.00in /  0mm 121 W/m2
15:04 22.5 °F /  -5.3 °C 18.9 °F /  -7.3 °C 30.33in /  1027hPa East 2.0mph /  3.2km/h 3.0mph /  4.8km/h 86% 0.00in /  0mm 116 W/m2
15:10 22.5 °F /  -5.3 °C 19.2 °F /  -7.1 °C 30.33in /  1027hPa East 2.0mph /  3.2km/h 2.0mph /  3.2km/h 87% 0.00in /  0mm 111 W/m2
15:16 22.6 °F /  -5.2 °C 19.3 °F /  -7.1 °C 30.33in /  1027hPa East 2.0mph /  3.2km/h 2.0mph /  3.2km/h 87% 0.00in /  0mm 104 W/m2
15:22 22.6 °F /  -5.2 °C 19.3 °F /  -7.1 °C 30.32in /  1026.6hPa ESE 2.0mph /  3.2km/h 3.0mph /  4.8km/h 87% 0.00in /  0mm 102 W/m2
15:28 22.6 °F /  -5.2 °C 19.3 °F /  -7.1 °C 30.32in /  1026.6hPa ENE 2.0mph /  3.2km/h 3.0mph /  4.8km/h 87% 0.00in /  0mm 95 W/m2
15:34 22.7 °F /  -5.2 °C 19.4 °F /  -7 °C 30.32in /  1026.6hPa SSE 2.0mph /  3.2km/h 4.0mph /  6.4km/h 87% 0.00in /  0mm 90 W/m2
15:40 22.5 °F /  -5.3 °C 19.2 °F /  -7.1 °C 30.32in /  1026.6hPa SE 4.0mph /  6.4km/h 4.0mph /  6.4km/h 87% 0.00in /  0mm 88 W/m2
15:48 22.7 °F /  -5.2 °C 19.4 °F /  -7 °C 30.32in /  1026.6hPa SE 2.0mph /  3.2km/h 6.0mph /  9.7km/h 87% 0.00in /  0mm 79 W/m2
15:54 22.7 °F /  -5.2 °C 19.4 °F /  -7 °C 30.32in /  1026.6hPa SE 2.0mph /  3.2km/h 3.0mph /  4.8km/h 87% 0.00in /  0mm 72 W/m2
16:00 22.8 °F /  -5.1 °C 19.5 °F /  -6.9 °C 30.31in /  1026.3hPa SE 2.0mph /  3.2km/h 3.0mph /  4.8km/h 87% 0.00in /  0mm 70 W/m2
16:06 22.8 °F /  -5.1 °C 19.5 °F /  -6.9 °C 30.31in /  1026.3hPa SE 2.0mph /  3.2km/h 3.0mph /  4.8km/h 87% 0.00in /  0mm 63 W/m2
16:12 22.8 °F /  -5.1 °C 19.8 °F /  -6.8 °C 30.31in /  1026.3hPa ESE 2.0mph /  3.2km/h 2.0mph /  3.2km/h 88% 0.00in /  0mm 51 W/m2
16:18 22.8 °F /  -5.1 °C 19.8 °F /  -6.8 °C 30.30in /  1026hPa ENE 2.0mph /  3.2km/h 3.0mph /  4.8km/h 88% 0.00in /  0mm 47 W/m2
16:24 22.6 °F /  -5.2 °C 19.3 °F /  -7.1 °C 30.30in /  1026hPa NE 3.0mph /  4.8km/h 5.0mph /  8km/h 87% 0.00in /  0mm 53 W/m2
16:30 22.5 °F /  -5.3 °C 19.5 °F /  -6.9 °C 30.30in /  1026hPa ENE 3.0mph /  4.8km/h 3.0mph /  4.8km/h 88% 0.00in /  0mm 49 W/m2
16:36 22.4 °F /  -5.3 °C 19.4 °F /  -7 °C 30.29in /  1025.6hPa ENE 3.0mph /  4.8km/h 4.0mph /  6.4km/h 88% 0.00in /  0mm 46 W/m2
16:42 22.3 °F /  -5.4 °C 19.3 °F /  -7.1 °C 30.29in /  1025.6hPa ENE 3.0mph /  4.8km/h 4.0mph /  6.4km/h 88% 0.00in /  0mm 40 W/m2
16:50 22.1 °F /  -5.5 °C 19.1 °F /  -7.2 °C 30.29in /  1025.6hPa East 3.0mph /  4.8km/h 3.0mph /  4.8km/h 88% 0.00in /  0mm 28 W/m2
16:56 22.1 °F /  -5.5 °C 19.1 °F /  -7.2 °C 30.28in /  1025.3hPa ESE 2.0mph /  3.2km/h 4.0mph /  6.4km/h 88% 0.00in /  0mm 25 W/m2
17:02 22.1 °F /  -5.5 °C 19.1 °F /  -7.2 °C 30.27in /  1024.9hPa ENE 2.0mph /  3.2km/h 3.0mph /  4.8km/h 88% 0.00in /  0mm 19 W/m2
17:08 22.1 °F /  -5.5 °C 19.4 °F /  -7 °C 30.27in /  1024.9hPa ENE 2.0mph /  3.2km/h 7.0mph /  11.3km/h 89% 0.00in /  0mm 14 W/m2
17:14 22.1 °F /  -5.5 °C 19.1 °F /  -7.2 °C 30.27in /  1024.9hPa NE 3.0mph /  4.8km/h 4.0mph /  6.4km/h 88% 0.00in /  0mm 9 W/m2
17:20 22.1 °F /  -5.5 °C 19.1 °F /  -7.2 °C 30.27in /  1024.9hPa ENE 2.0mph /  3.2km/h 2.0mph /  3.2km/h 88% 0.00in /  0mm 5 W/m2
17:26 22.1 °F /  -5.5 °C 19.4 °F /  -7 °C 30.27in /  1024.9hPa NE 2.0mph /  3.2km/h 3.0mph /  4.8km/h 89% 0.00in /  0mm 0 W/m2
17:32 22.2 °F /  -5.4 °C 19.5 °F /  -6.9 °C 30.27in /  1024.9hPa ENE 3.0mph /  4.8km/h 4.0mph /  6.4km/h 89% 0.00in /  0mm 0 W/m2
17:38 22.2 °F /  -5.4 °C 19.5 °F /  -6.9 °C 30.26in /  1024.6hPa ENE 3.0mph /  4.8km/h 4.0mph /  6.4km/h 89% 0.00in /  0mm 0 W/m2
17:44 22.2 °F /  -5.4 °C 19.5 °F /  -6.9 °C 30.26in /  1024.6hPa East 3.0mph /  4.8km/h 4.0mph /  6.4km/h 89% 0.00in /  0mm 0 W/m2
17:50 22.2 °F /  -5.4 °C 19.5 °F /  -6.9 °C 30.26in /  1024.6hPa ENE 3.0mph /  4.8km/h 3.0mph /  4.8km/h 89% 0.00in /  0mm 0 W/m2
17:56 22.2 °F /  -5.4 °C 19.5 °F /  -6.9 °C 30.25in /  1024.3hPa ENE 3.0mph /  4.8km/h 3.0mph /  4.8km/h 89% 0.00in /  0mm 0 W/m2
18:02 22.2 °F /  -5.4 °C 19.5 °F /  -6.9 °C 30.26in /  1024.6hPa NE 3.0mph /  4.8km/h 3.0mph /  4.8km/h 89% 0.00in /  0mm 0 W/m2
18:08 22.3 °F /  -5.4 °C 19.6 °F /  -6.9 °C 30.25in /  1024.3hPa East 3.0mph /  4.8km/h 3.0mph /  4.8km/h 89% 0.00in /  0mm 0 W/m2
18:14 22.3 °F /  -5.4 °C 19.6 °F /  -6.9 °C 30.25in /  1024.3hPa East 3.0mph /  4.8km/h 3.0mph /  4.8km/h 89% 0.00in /  0mm 0 W/m2
18:20 22.4 °F /  -5.3 °C 19.9 °F /  -6.7 °C 30.25in /  1024.3hPa ENE 3.0mph /  4.8km/h 5.0mph /  8km/h 90% 0.00in /  0mm 0 W/m2
18:26 22.4 °F /  -5.3 °C 19.9 °F /  -6.7 °C 30.25in /  1024.3hPa ESE 4.0mph /  6.4km/h 5.0mph /  8km/h 90% 0.00in /  0mm 0 W/m2
18:32 22.3 °F /  -5.4 °C 19.8 °F /  -6.8 °C 30.25in /  1024.3hPa ENE 3.0mph /  4.8km/h 4.0mph /  6.4km/h 90% 0.00in /  0mm 0 W/m2
18:38 22.3 °F /  -5.4 °C 19.8 °F /  -6.8 °C 30.24in /  1023.9hPa ENE 3.0mph /  4.8km/h 4.0mph /  6.4km/h 90% 0.00in /  0mm 0 W/m2
18:44 22.2 °F /  -5.4 °C 19.7 °F /  -6.8 °C 30.25in /  1024.3hPa SE 3.0mph /  4.8km/h 8.0mph /  12.9km/h 90% 0.00in /  0mm 0 W/m2
18:50 22.2 °F /  -5.4 °C 19.7 °F /  -6.8 °C 30.25in /  1024.3hPa ENE 3.0mph /  4.8km/h 3.0mph /  4.8km/h 90% 0.00in /  0mm 0 W/m2
18:56 22.1 °F /  -5.5 °C 19.6 °F /  -6.9 °C 30.25in /  1024.3hPa ENE 3.0mph /  4.8km/h 7.0mph /  11.3km/h 90% 0.00in /  0mm 0 W/m2
19:02 22.0 °F /  -5.6 °C 19.5 °F /  -6.9 °C 30.25in /  1024.3hPa ENE 3.0mph /  4.8km/h 4.0mph /  6.4km/h 90% 0.00in /  0mm 0 W/m2
19:08 22.0 °F /  -5.6 °C 19.5 °F /  -6.9 °C 30.25in /  1024.3hPa SE 2.0mph /  3.2km/h 4.0mph /  6.4km/h 90% 0.00in /  0mm 0 W/m2
19:14 21.9 °F /  -5.6 °C 19.4 °F /  -7 °C 30.25in /  1024.3hPa ENE 1.0mph /  1.6km/h 3.0mph /  4.8km/h 90% 0.00in /  0mm 0 W/m2
19:20 21.8 °F /  -5.7 °C 19.3 °F /  -7.1 °C 30.25in /  1024.3hPa East 1.0mph /  1.6km/h 1.0mph /  1.6km/h 90% 0.00in /  0mm 0 W/m2
19:26 21.8 °F /  -5.7 °C 19.3 °F /  -7.1 °C 30.25in /  1024.3hPa East 1.0mph /  1.6km/h 2.0mph /  3.2km/h 90% 0.00in /  0mm 0 W/m2
19:32 21.8 °F /  -5.7 °C 19.3 °F /  -7.1 °C 30.25in /  1024.3hPa ENE 1.0mph /  1.6km/h 3.0mph /  4.8km/h 90% 0.00in /  0mm 0 W/m2
19:38 21.8 °F /  -5.7 °C 19.3 °F /  -7.1 °C 30.24in /  1023.9hPa ENE 2.0mph /  3.2km/h 3.0mph /  4.8km/h 90% 0.00in /  0mm 0 W/m2
19:44 21.8 °F /  -5.7 °C 19.3 °F /  -7.1 °C 30.24in /  1023.9hPa ESE 2.0mph /  3.2km/h 3.0mph /  4.8km/h 90% 0.00in /  0mm 0 W/m2
19:50 21.8 °F /  -5.7 °C 19.3 °F /  -7.1 °C 30.24in /  1023.9hPa East 2.0mph /  3.2km/h 2.0mph /  3.2km/h 90% 0.00in /  0mm 0 W/m2
19:56 21.8 °F /  -5.7 °C 19.3 °F /  -7.1 °C 30.24in /  1023.9hPa NE 2.0mph /  3.2km/h 5.0mph /  8km/h 90% 0.00in /  0mm 0 W/m2
20:02 21.8 °F /  -5.7 °C 19.3 °F /  -7.1 °C 30.24in /  1023.9hPa ENE 2.0mph /  3.2km/h 3.0mph /  4.8km/h 90% 0.00in /  0mm 0 W/m2
20:08 21.8 °F /  -5.7 °C 19.3 °F /  -7.1 °C 30.24in /  1023.9hPa ENE 2.0mph /  3.2km/h 3.0mph /  4.8km/h 90% 0.00in /  0mm 0 W/m2
20:14 21.8 °F /  -5.7 °C 19.3 °F /  -7.1 °C 30.23in /  1023.6hPa ENE 1.0mph /  1.6km/h 2.0mph /  3.2km/h 90% 0.00in /  0mm 0 W/m2
20:20 21.8 °F /  -5.7 °C 19.6 °F /  -6.9 °C 30.23in /  1023.6hPa ENE 2.0mph /  3.2km/h 2.0mph /  3.2km/h 91% 0.00in /  0mm 0 W/m2
20:26 21.9 °F /  -5.6 °C 19.4 °F /  -7 °C 30.23in /  1023.6hPa ENE 2.0mph /  3.2km/h 4.0mph /  6.4km/h 90% 0.00in /  0mm 0 W/m2
20:32 21.9 °F /  -5.6 °C 19.7 °F /  -6.8 °C 30.23in /  1023.6hPa ENE 2.0mph /  3.2km/h 2.0mph /  3.2km/h 91% 0.00in /  0mm 0 W/m2
20:38 21.9 °F /  -5.6 °C 19.7 °F /  -6.8 °C 30.22in /  1023.2hPa East 2.0mph /  3.2km/h 2.0mph /  3.2km/h 91% 0.00in /  0mm 0 W/m2
20:44 21.9 °F /  -5.6 °C 19.7 °F /  -6.8 °C 30.22in /  1023.2hPa SE 1.0mph /  1.6km/h 3.0mph /  4.8km/h 91% 0.00in /  0mm 0 W/m2
20:50 22.0 °F /  -5.6 °C 19.8 °F /  -6.8 °C 30.22in /  1023.2hPa ENE 2.0mph /  3.2km/h 2.0mph /  3.2km/h 91% 0.00in /  0mm 0 W/m2
20:56 22.0 °F /  -5.6 °C 19.8 °F /  -6.8 °C 30.22in /  1023.2hPa East 3.0mph /  4.8km/h 3.0mph /  4.8km/h 91% 0.00in /  0mm 0 W/m2
21:02 22.1 °F /  -5.5 °C 19.9 °F /  -6.7 °C 30.21in /  1022.9hPa ENE 3.0mph /  4.8km/h 3.0mph /  4.8km/h 91% 0.00in /  0mm 0 W/m2
21:08 22.2 °F /  -5.4 °C 20.0 °F /  -6.7 °C 30.21in /  1022.9hPa ENE 3.0mph /  4.8km/h 4.0mph /  6.4km/h 91% 0.00in /  0mm 0 W/m2
21:14 22.2 °F /  -5.4 °C 20.0 °F /  -6.7 °C 30.21in /  1022.9hPa NE 3.0mph /  4.8km/h 5.0mph /  8km/h 91% 0.00in /  0mm 0 W/m2
21:20 22.3 °F /  -5.4 °C 20.1 °F /  -6.6 °C 30.21in /  1022.9hPa ENE 3.0mph /  4.8km/h 3.0mph /  4.8km/h 91% 0.00in /  0mm 0 W/m2
21:26 22.4 °F /  -5.3 °C 20.2 °F /  -6.6 °C 30.21in /  1022.9hPa ENE 3.0mph /  4.8km/h 3.0mph /  4.8km/h 91% 0.00in /  0mm 0 W/m2
21:32 22.4 °F /  -5.3 °C 20.2 °F /  -6.6 °C 30.21in /  1022.9hPa East 3.0mph /  4.8km/h 3.0mph /  4.8km/h 91% 0.00in /  0mm 0 W/m2
21:38 22.5 °F /  -5.3 °C 20.3 °F /  -6.5 °C 30.22in /  1023.2hPa ENE 2.0mph /  3.2km/h 4.0mph /  6.4km/h 91% 0.00in /  0mm 0 W/m2
21:44 22.6 °F /  -5.2 °C 20.4 °F /  -6.4 °C 30.21in /  1022.9hPa ENE 2.0mph /  3.2km/h 4.0mph /  6.4km/h 91% 0.00in /  0mm 0 W/m2
21:50 22.6 °F /  -5.2 °C 20.4 °F /  -6.4 °C 30.21in /  1022.9hPa ENE 2.0mph /  3.2km/h 7.0mph /  11.3km/h 91% 0.00in /  0mm 0 W/m2
21:56 22.7 °F /  -5.2 °C 20.5 °F /  -6.4 °C 30.20in /  1022.6hPa ENE 3.0mph /  4.8km/h 7.0mph /  11.3km/h 91% 0.00in /  0mm 0 W/m2
22:02 22.7 °F /  -5.2 °C 20.5 °F /  -6.4 °C 30.20in /  1022.6hPa NE 3.0mph /  4.8km/h 3.0mph /  4.8km/h 91% 0.00in /  0mm 0 W/m2
22:08 22.7 °F /  -5.2 °C 20.5 °F /  -6.4 °C 30.20in /  1022.6hPa East 2.0mph /  3.2km/h 8.0mph /  12.9km/h 91% 0.00in /  0mm 0 W/m2
22:14 22.8 °F /  -5.1 °C 20.6 °F /  -6.3 °C 30.20in /  1022.6hPa ENE 3.0mph /  4.8km/h 3.0mph /  4.8km/h 91% 0.00in /  0mm 0 W/m2
22:20 22.9 °F /  -5.1 °C 20.7 °F /  -6.3 °C 30.20in /  1022.6hPa ENE 3.0mph /  4.8km/h 3.0mph /  4.8km/h 91% 0.00in /  0mm 0 W/m2
22:26 23.0 °F /  -5 °C 20.8 °F /  -6.2 °C 30.20in /  1022.6hPa ENE 3.0mph /  4.8km/h 3.0mph /  4.8km/h 91% 0.00in /  0mm 0 W/m2
22:32 23.1 °F /  -4.9 °C 20.9 °F /  -6.2 °C 30.20in /  1022.6hPa ENE 2.0mph /  3.2km/h 2.0mph /  3.2km/h 91% 0.00in /  0mm 0 W/m2
22:38 23.2 °F /  -4.9 °C 21.0 °F /  -6.1 °C 30.20in /  1022.6hPa ENE 2.0mph /  3.2km/h 2.0mph /  3.2km/h 91% 0.00in /  0mm 0 W/m2
22:44 23.3 °F /  -4.8 °C 21.1 °F /  -6.1 °C 30.19in /  1022.2hPa ENE 2.0mph /  3.2km/h 3.0mph /  4.8km/h 91% 0.00in /  0mm 0 W/m2
22:50 23.3 °F /  -4.8 °C 21.1 °F /  -6.1 °C 30.19in /  1022.2hPa ENE 2.0mph /  3.2km/h 2.0mph /  3.2km/h 91% 0.00in /  0mm 0 W/m2
22:56 23.4 °F /  -4.8 °C 21.2 °F /  -6 °C 30.19in /  1022.2hPa East 2.0mph /  3.2km/h 4.0mph /  6.4km/h 91% 0.00in /  0mm 0 W/m2
23:02 23.5 °F /  -4.7 °C 21.3 °F /  -5.9 °C 30.19in /  1022.2hPa East 1.0mph /  1.6km/h 1.0mph /  1.6km/h 91% 0.00in /  0mm 0 W/m2
23:08 23.6 °F /  -4.7 °C 21.4 °F /  -5.9 °C 30.19in /  1022.2hPa East 1.0mph /  1.6km/h 1.0mph /  1.6km/h 91% 0.00in /  0mm 0 W/m2
23:14 23.7 °F /  -4.6 °C 21.5 °F /  -5.8 °C 30.19in /  1022.2hPa East 1.0mph /  1.6km/h 1.0mph /  1.6km/h 91% 0.00in /  0mm 0 W/m2
23:20 23.8 °F /  -4.6 °C 21.6 °F /  -5.8 °C 30.19in /  1022.2hPa East 1.0mph /  1.6km/h 2.0mph /  3.2km/h 91% 0.00in /  0mm 0 W/m2
23:26 23.9 °F /  -4.5 °C 21.7 °F /  -5.7 °C 30.19in /  1022.2hPa East 1.0mph /  1.6km/h 2.0mph /  3.2km/h 91% 0.00in /  0mm 0 W/m2
23:32 24.0 °F /  -4.4 °C 21.8 °F /  -5.7 °C 30.18in /  1021.9hPa East 1.0mph /  1.6km/h 2.0mph /  3.2km/h 91% 0.00in /  0mm 0 W/m2
23:38 24.1 °F /  -4.4 °C 21.9 °F /  -5.6 °C 30.18in /  1021.9hPa ENE 2.0mph /  3.2km/h 3.0mph /  4.8km/h 91% 0.00in /  0mm 0 W/m2
23:44 24.2 °F /  -4.3 °C 22.0 °F /  -5.6 °C 30.18in /  1021.9hPa ENE 2.0mph /  3.2km/h 3.0mph /  4.8km/h 91% 0.00in /  0mm 0 W/m2
23:50 24.3 °F /  -4.3 °C 22.1 °F /  -5.5 °C 30.18in /  1021.9hPa ENE 1.0mph /  1.6km/h 2.0mph /  3.2km/h 91% 0.00in /  0mm 0 W/m2
23:56 24.3 °F /  -4.3 °C 22.1 °F /  -5.5 °C 30.18in /  1021.9hPa ENE 1.0mph /  1.6km/h 2.0mph /  3.2km/h 91% 0.00in /  0mm 0 W/m2
Country Meadow, Clay, NY, USA
Compliments of Weather Underground - 2 mb